Time;durP1;ratioP1;P1;durP2;ratioP2;P2;SDS_P1;SDS_P2;PMS_P1;PMS_P2;Temp;Humidity;BMP_temperature;BMP_pressure;BME280_temperature;BME280_humidity;BME280_pressure;Samples;Min_cycle;Max_cycle;Signal;HPM_P1;HPM_P2
2021/09/10 00:01:58;;;;;;;29.00;21.80;;;;;;;;;;5037482;28;20025;-62
2021/09/10 00:04:24;;;;;;;27.85;22.27;;;;;;;;;;5055431;28;20377;-63
2021/09/10 00:06:50;;;;;;;26.48;21.70;;;;;;;;;;5053899;28;20155;-63
2021/09/10 00:09:17;;;;;;;31.63;21.90;;;;;;;;;;5055297;28;20546;-62
2021/09/10 00:11:43;;;;;;;29.60;22.38;;;;;;;;;;5055325;28;20396;-62
2021/09/10 00:14:09;;;;;;;30.75;21.15;;;;;;;;;;5037212;28;20075;-62
2021/09/10 00:16:35;;;;;;;27.60;22.90;;;;;;;;;;5037267;28;20025;-62
2021/09/10 00:19:01;;;;;;;27.13;22.83;;;;;;;;;;5037001;28;20033;-63
2021/09/10 00:21:29;;;;;;;26.98;21.77;;;;;;;;;;5055125;28;20140;-62
2021/09/10 00:23:55;;;;;;;;;;;;;;;;;;5053772;28;20079;-62
2021/09/10 00:26:21;;;;;;;27.48;21.95;;;;;;;;;;5055111;28;19909;-61
2021/09/10 00:28:47;;;;;;;28.25;22.60;;;;;;;;;;5037073;28;20091;-63
2021/09/10 00:31:13;;;;;;;29.08;22.38;;;;;;;;;;5037345;28;20032;-63
2021/09/10 00:33:39;;;;;;;27.50;21.95;;;;;;;;;;5036373;28;20112;-63
2021/09/10 00:36:05;;;;;;;29.75;22.80;;;;;;;;;;5054514;28;20029;-62
2021/09/10 00:38:31;;;;;;;26.15;22.35;;;;;;;;;;5036828;28;20025;-62
2021/09/10 00:40:58;;;;;;;29.23;21.95;;;;;;;;;;5035319;28;20366;-63
2021/09/10 00:43:24;;;;;;;28.40;22.58;;;;;;;;;;5054266;28;20393;-63
2021/09/10 00:45:50;;;;;;;27.90;22.73;;;;;;;;;;5054145;28;20028;-62
2021/09/10 00:48:19;;;;;;;29.08;23.50;;;;;;;;;;5036529;28;20036;-63
2021/09/10 00:50:46;;;;;;;29.60;22.52;;;;;;;;;;5036508;28;20489;-63
2021/09/10 00:53:12;;;;;;;27.10;21.85;;;;;;;;;;5036664;28;20025;-62
2021/09/10 00:55:38;;;;;;;28.67;22.10;;;;;;;;;;5054393;28;20024;-63
2021/09/10 00:58:04;;;;;;;32.00;24.13;;;;;;;;;;5054406;28;20021;-64
2021/09/10 01:00:30;;;;;;;27.17;22.58;;;;;;;;;;5052487;28;20040;-63
2021/09/10 01:02:56;;;;;;;32.83;24.02;;;;;;;;;;5054302;28;20025;-63
2021/09/10 01:05:22;;;;;;;31.05;24.15;;;;;;;;;;5054115;28;20025;-63
2021/09/10 01:07:49;;;;;;;28.30;22.38;;;;;;;;;;5034579;28;20079;-62
2021/09/10 01:10:15;;;;;;;29.65;22.52;;;;;;;;;;5034435;28;20056;-63
2021/09/10 01:12:41;;;;;;;30.05;22.77;;;;;;;;;;5033013;28;20541;-63
2021/09/10 01:15:08;;;;;;;28.83;22.58;;;;;;;;;;5033980;28;20029;-60
2021/09/10 01:17:34;;;;;;;27.70;21.83;;;;;;;;;;5046655;28;20056;-62
2021/09/10 01:20:00;;;;;;;33.15;23.17;;;;;;;;;;5053995;28;20029;-62
2021/09/10 01:22:26;;;;;;;32.35;23.67;;;;;;;;;;5035664;28;20564;-63
2021/09/10 01:25:10;;;;;;;27.52;22.48;;;;;;;;;;5036014;28;20032;-62
2021/09/10 01:27:36;;;;;;;27.92;22.83;;;;;;;;;;5053911;28;20421;-63
2021/09/10 01:30:04;;;;;;;30.92;23.58;;;;;;;;;;5035889;28;20025;-62
2021/09/10 01:32:30;;;;;;;28.83;22.47;;;;;;;;;;5053973;28;20021;-62
2021/09/10 01:34:56;;;;;;;29.50;22.67;;;;;;;;;;5034543;28;20440;-63
2021/09/10 01:37:22;;;;;;;31.02;23.05;;;;;;;;;;5035705;28;20032;-62
2021/09/10 01:39:48;;;;;;;27.27;21.55;;;;;;;;;;5053697;28;20025;-61
2021/09/10 01:42:14;;;;;;;28.17;22.27;;;;;;;;;;5049416;28;20021;-60
2021/09/10 01:44:40;;;;;;;29.00;22.77;;;;;;;;;;5023236;28;20506;-63
2021/09/10 01:47:06;;;;;;;28.98;22.90;;;;;;;;;;5053118;28;20092;-63
2021/09/10 01:49:32;;;;;;;28.95;21.65;;;;;;;;;;5053225;28;20033;-63
2021/09/10 01:51:58;;;;;;;27.52;21.90;;;;;;;;;;5051821;28;20029;-62
2021/09/10 01:54:27;;;;;;;27.17;20.95;;;;;;;;;;5035264;28;20028;-63
2021/09/10 01:56:53;;;;;;;30.17;20.60;;;;;;;;;;5053607;28;20082;-62
2021/09/10 01:59:19;;;;;;;29.40;21.65;;;;;;;;;;5053189;28;20025;-62
2021/09/10 02:01:45;;;;;;;26.10;20.65;;;;;;;;;;5053479;28;20060;-63
2021/09/10 02:04:11;;;;;;;25.98;20.35;;;;;;;;;;5035336;28;20075;-62
2021/09/10 02:06:37;;;;;;;27.20;19.75;;;;;;;;;;5040589;28;20034;-63
2021/09/10 02:09:03;;;;;;;23.15;19.27;;;;;;;;;;5016345;28;20029;-63
2021/09/10 02:11:29;;;;;;;25.30;20.08;;;;;;;;;;5015362;28;20037;-63
2021/09/10 02:13:55;;;;;;;27.58;21.23;;;;;;;;;;5015231;28;20036;-62
2021/09/10 02:16:21;;;;;;;26.35;20.30;;;;;;;;;;5015246;28;20105;-62
2021/09/10 02:18:47;;;;;;;26.88;21.58;;;;;;;;;;5032894;28;20132;-62
2021/09/10 02:21:13;;;;;;;25.15;21.17;;;;;;;;;;5032949;28;20025;-62
2021/09/10 02:23:40;;;;;;;26.50;21.10;;;;;;;;;;5032614;28;20359;-62
2021/09/10 02:26:06;;;;;;;30.27;21.83;;;;;;;;;;5050792;28;20021;-62
2021/09/10 02:28:31;;;;;;;26.77;22.77;;;;;;;;;;5052703;28;20048;-63
2021/09/10 02:30:57;;;;;;;31.15;22.98;;;;;;;;;;5052894;28;20021;-62
2021/09/10 02:33:24;;;;;;;27.75;21.90;;;;;;;;;;5052598;28;20108;-63
2021/09/10 02:35:50;;;;;;;28.40;21.63;;;;;;;;;;5034414;28;20443;-62
2021/09/10 02:38:16;;;;;;;27.92;22.27;;;;;;;;;;5034401;28;20021;-62
2021/09/10 02:40:41;;;;;;;31.02;22.40;;;;;;;;;;5050665;28;20025;-64
2021/09/10 02:43:07;;;;;;;28.70;21.70;;;;;;;;;;5052424;28;20052;-64
2021/09/10 02:45:34;;;;;;;28.00;23.73;;;;;;;;;;5034111;28;20116;-62
2021/09/10 02:48:00;;;;;;;30.83;23.10;;;;;;;;;;5051985;28;20033;-61
2021/09/10 02:50:26;;;;;;;27.10;22.98;;;;;;;;;;5052331;28;20028;-63
2021/09/10 02:52:54;;;;;;;27.60;22.25;;;;;;;;;;5052171;28;20059;-63
2021/09/10 02:55:20;;;;;;;31.73;23.33;;;;;;;;;;5052582;28;20413;-63
2021/09/10 02:57:46;;;;;;;29.92;24.33;;;;;;;;;;5050846;28;20033;-62
2021/09/10 03:00:13;;;;;;;30.90;22.92;;;;;;;;;;5030809;28;20124;-63
2021/09/10 03:02:38;;;;;;;29.08;24.73;;;;;;;;;;5014423;28;20029;-61
2021/09/10 03:05:05;;;;;;;26.15;21.77;;;;;;;;;;5031801;28;20062;-63
2021/09/10 03:07:31;;;;;;;31.73;24.13;;;;;;;;;;5031855;28;20460;-63
2021/09/10 03:09:57;;;;;;;29.38;22.92;;;;;;;;;;5031890;28;20021;-64
2021/09/10 03:12:23;;;;;;;31.05;23.40;;;;;;;;;;5014331;28;20022;-64
2021/09/10 03:14:49;;;;;;;30.98;24.58;;;;;;;;;;5015042;28;20397;-64
2021/09/10 03:17:15;;;;;;;28.77;23.23;;;;;;;;;;5049902;28;20052;-62
2021/09/10 03:19:41;;;;;;;30.17;23.83;;;;;;;;;;5016988;28;20030;-63
2021/09/10 03:22:07;;;;;;;30.95;25.60;;;;;;;;;;5032011;28;20548;-63
2021/09/10 03:24:33;;;;;;;29.02;23.38;;;;;;;;;;5031811;28;20030;-63
2021/09/10 03:26:59;;;;;;;28.50;23.83;;;;;;;;;;5038368;28;20515;-62
2021/09/10 03:29:25;;;;;;;29.38;23.65;;;;;;;;;;5033926;28;20021;-63
2021/09/10 03:31:51;;;;;;;30.15;24.35;;;;;;;;;;5017700;28;20397;-63
2021/09/10 03:34:17;;;;;;;30.90;24.50;;;;;;;;;;5049826;28;20040;-63
2021/09/10 03:36:43;;;;;;;31.35;23.55;;;;;;;;;;5034087;28;20574;-62
2021/09/10 03:39:09;;;;;;;30.67;22.98;;;;;;;;;;5052654;28;20021;-60
2021/09/10 03:41:35;;;;;;;30.08;23.23;;;;;;;;;;5034729;28;20103;-63
2021/09/10 03:44:04;;;;;;;32.30;24.70;;;;;;;;;;5051534;28;20431;-63
2021/09/10 03:46:30;;;;;;;32.72;24.17;;;;;;;;;;5051675;28;20029;-62
2021/09/10 03:48:56;;;;;;;35.05;24.25;;;;;;;;;;5033576;28;20044;-63
2021/09/10 03:51:22;;;;;;;30.60;24.58;;;;;;;;;;5031275;28;20120;-63
2021/09/10 03:53:48;;;;;;;30.90;24.38;;;;;;;;;;5050905;28;20057;-63
2021/09/10 03:56:14;;;;;;;30.38;24.20;;;;;;;;;;5034371;28;20393;-63
2021/09/10 03:58:40;;;;;;;30.98;25.40;;;;;;;;;;5051942;28;20025;-63
2021/09/10 04:01:06;;;;;;;29.83;24.17;;;;;;;;;;5051821;28;20028;-63
2021/09/10 04:03:32;;;;;;;29.65;24.63;;;;;;;;;;5051055;28;20025;-63
2021/09/10 04:05:58;;;;;;;29.23;24.60;;;;;;;;;;5051490;28;20028;-63
2021/09/10 04:08:24;;;;;;;31.40;24.52;;;;;;;;;;5023020;28;20036;-63
2021/09/10 04:10:50;;;;;;;29.98;24.33;;;;;;;;;;5017196;28;20626;-63
2021/09/10 04:13:16;;;;;;;30.15;24.35;;;;;;;;;;5017492;28;20144;-63
2021/09/10 04:15:42;;;;;;;26.88;23.63;;;;;;;;;;5035165;28;20100;-63
2021/09/10 04:18:08;;;;;;;31.55;25.27;;;;;;;;;;5034840;28;20134;-63
2021/09/10 04:20:34;;;;;;;30.30;23.77;;;;;;;;;;5034717;28;20029;-62
2021/09/10 04:23:00;;;;;;;28.17;24.10;;;;;;;;;;5035064;28;20052;-63
2021/09/10 04:25:27;;;;;;;30.27;24.02;;;;;;;;;;5018316;28;20413;-62
2021/09/10 04:27:53;;;;;;;28.15;24.77;;;;;;;;;;5035197;28;20022;-62
2021/09/10 04:30:19;;;;;;;31.80;25.58;;;;;;;;;;5017690;28;20132;-63
2021/09/10 04:32:45;;;;;;;33.67;26.13;;;;;;;;;;5017567;28;20037;-62
2021/09/10 04:35:11;;;;;;;31.35;25.52;;;;;;;;;;5016861;28;20021;-64
2021/09/10 04:37:38;;;;;;;29.83;26.50;;;;;;;;;;5000632;28;20072;-62
2021/09/10 04:40:04;;;;;;;29.40;25.73;;;;;;;;;;5034978;28;20032;-63
2021/09/10 04:42:30;;;;;;;32.78;26.15;;;;;;;;;;5018186;28;20045;-62
2021/09/10 04:44:56;;;;;;;33.10;24.20;;;;;;;;;;5017158;28;20036;-62
2021/09/10 04:47:25;;;;;;;30.45;25.52;;;;;;;;;;5016455;28;20021;-62
2021/09/10 04:49:51;;;;;;;31.98;25.95;;;;;;;;;;5016882;28;20033;-63
2021/09/10 04:52:17;;;;;;;31.15;25.67;;;;;;;;;;5016495;28;20083;-63
2021/09/10 04:54:43;;;;;;;34.92;27.50;;;;;;;;;;5015984;28;20030;-62
2021/09/10 04:57:09;;;;;;;31.33;26.73;;;;;;;;;;5034066;28;20029;-62
2021/09/10 04:59:35;;;;;;;31.60;27.38;;;;;;;;;;5033960;28;20359;-62
2021/09/10 05:02:03;;;;;;;32.28;26.92;;;;;;;;;;5035230;28;20104;-63
2021/09/10 05:04:29;;;;;;;;;;;;;;;;;;5034534;28;20097;-63
2021/09/10 05:06:55;;;;;;;30.30;26.33;;;;;;;;;;5016651;28;19990;-63
2021/09/10 05:09:21;;;;;;;34.90;26.25;;;;;;;;;;5016072;28;20481;-63
2021/09/10 05:11:47;;;;;;;30.60;25.45;;;;;;;;;;5033808;28;20030;-63
2021/09/10 05:14:14;;;;;;;31.73;26.60;;;;;;;;;;5015635;28;20029;-64
2021/09/10 05:16:41;;;;;;;33.50;26.55;;;;;;;;;;5033805;28;20036;-61
2021/09/10 05:19:07;;;;;;;35.38;26.88;;;;;;;;;;5034504;28;20382;-63
2021/09/10 05:21:33;;;;;;;28.58;25.15;;;;;;;;;;5014965;28;20029;-62
2021/09/10 05:23:59;;;;;;;32.75;25.27;;;;;;;;;;5015602;28;20450;-63
2021/09/10 05:26:25;;;;;;;29.50;24.98;;;;;;;;;;5033167;28;20079;-63
2021/09/10 05:28:51;;;;;;;33.05;26.50;;;;;;;;;;5032660;28;20087;-62
2021/09/10 05:31:17;;;;;;;31.92;25.55;;;;;;;;;;5016032;28;20018;-62
2021/09/10 05:33:43;;;;;;;32.75;25.13;;;;;;;;;;5033863;28;20434;-63
2021/09/10 05:36:09;;;;;;;32.88;25.40;;;;;;;;;;5035060;28;20025;-62
2021/09/10 05:38:35;;;;;;;28.38;24.98;;;;;;;;;;5053048;28;20496;-63
2021/09/10 05:41:01;;;;;;;29.40;24.77;;;;;;;;;;5052351;28;20040;-63
2021/09/10 05:43:27;;;;;;;30.00;24.17;;;;;;;;;;5035032;28;20482;-63
2021/09/10 05:45:53;;;;;;;28.70;24.63;;;;;;;;;;5052472;28;20056;-63
2021/09/10 05:48:19;;;;;;;30.13;24.42;;;;;;;;;;5052187;23;20045;-64
2021/09/10 05:50:46;;;;;;;30.23;24.58;;;;;;;;;;5031457;28;20029;-63
2021/09/10 05:53:12;;;;;;;30.90;24.42;;;;;;;;;;5031047;28;20025;-63
2021/09/10 05:55:38;;;;;;;29.27;24.35;;;;;;;;;;5031121;28;20489;-63
2021/09/10 05:58:04;;;;;;;29.90;24.75;;;;;;;;;;5032213;28;20104;-63
2021/09/10 06:00:30;;;;;;;30.48;24.25;;;;;;;;;;5032694;28;20021;-63
2021/09/10 06:02:56;;;;;;;29.05;22.98;;;;;;;;;;5031627;28;20036;-64
2021/09/10 06:05:22;;;;;;;27.90;23.65;;;;;;;;;;5031333;28;20400;-63
2021/09/10 06:07:48;;;;;;;30.58;23.45;;;;;;;;;;5032470;28;20025;-63
2021/09/10 06:10:14;;;;;;;29.67;22.35;;;;;;;;;;5032649;28;20108;-64
2021/09/10 06:12:40;;;;;;;32.80;23.77;;;;;;;;;;5031216;28;20620;-63
2021/09/10 06:15:07;;;;;;;27.08;23.10;;;;;;;;;;5029990;28;20063;-63
2021/09/10 06:17:33;;;;;;;27.27;23.58;;;;;;;;;;5031245;28;20100;-62
2021/09/10 06:19:59;;;;;;;27.73;21.90;;;;;;;;;;5031173;28;20549;-62
2021/09/10 06:22:27;;;;;;;27.02;21.70;;;;;;;;;;5032170;28;20037;-62
2021/09/10 06:24:53;;;;;;;;;;;;;;;;;;5030794;28;20104;-62
2021/09/10 06:27:19;;;;;;;26.52;21.60;;;;;;;;;;5032203;28;19932;-61
2021/09/10 06:29:45;;;;;;;26.70;22.48;;;;;;;;;;5032027;28;20026;-63
2021/09/10 06:32:11;;;;;;;25.80;21.02;;;;;;;;;;5030052;28;20036;-63
2021/09/10 06:34:37;;;;;;;25.70;21.00;;;;;;;;;;5029928;28;20041;-63
2021/09/10 06:37:03;;;;;;;25.60;20.77;;;;;;;;;;5030752;28;20041;-63
2021/09/10 06:39:29;;;;;;;26.52;20.88;;;;;;;;;;5030253;28;20037;-66
2021/09/10 06:41:58;;;;;;;25.38;20.63;;;;;;;;;;5030699;28;20108;-63
2021/09/10 06:44:24;;;;;;;24.20;20.77;;;;;;;;;;5030857;28;20033;-62
2021/09/10 06:46:50;;;;;;;25.63;20.63;;;;;;;;;;5030438;28;20047;-60
2021/09/10 06:49:16;;;;;;;25.40;19.85;;;;;;;;;;5030341;28;20128;-61
2021/09/10 06:51:42;;;;;;;24.85;19.23;;;;;;;;;;5031896;28;20489;-62
2021/09/10 06:54:08;;;;;;;27.88;19.90;;;;;;;;;;5031528;28;20026;-62
2021/09/10 06:56:35;;;;;;;24.25;19.20;;;;;;;;;;5030904;28;20029;-62
2021/09/10 06:59:01;;;;;;;24.92;18.98;;;;;;;;;;5031536;28;20025;-61
2021/09/10 07:01:27;;;;;;;23.80;18.25;;;;;;;;;;5024162;28;20105;-62
2021/09/10 07:03:53;;;;;;;25.67;19.60;;;;;;;;;;5011955;28;20022;-62
2021/09/10 07:06:20;;;;;;;31.67;21.02;;;;;;;;;;5015592;28;20520;-62
2021/09/10 07:08:46;;;;;;;23.65;19.95;;;;;;;;;;5031564;28;20496;-62
2021/09/10 07:11:12;;;;;;;24.70;18.48;;;;;;;;;;5030823;28;20159;-62
2021/09/10 07:13:38;;;;;;;24.00;19.77;;;;;;;;;;5031458;28;20067;-61
2021/09/10 07:16:04;;;;;;;23.58;18.70;;;;;;;;;;5023872;28;20090;-61
2021/09/10 07:18:30;;;;;;;23.90;18.25;;;;;;;;;;5028166;28;20034;-62
2021/09/10 07:20:57;;;;;;;25.40;18.27;;;;;;;;;;5028982;28;20032;-61
2021/09/10 07:23:23;;;;;;;24.05;17.63;;;;;;;;;;5031135;28;20054;-60
2021/09/10 07:25:49;;;;;;;23.60;17.20;;;;;;;;;;5029483;28;20513;-61
2021/09/10 07:28:15;;;;;;;25.25;18.92;;;;;;;;;;5030238;28;20109;-61
2021/09/10 07:30:41;;;;;;;22.42;18.13;;;;;;;;;;5027806;28;20026;-60
2021/09/10 07:33:07;;;;;;;23.30;16.92;;;;;;;;;;5029729;28;20034;-60
2021/09/10 07:35:33;;;;;;;25.63;18.25;;;;;;;;;;5029330;28;20022;-60
2021/09/10 07:38:00;;;;;;;24.45;17.90;;;;;;;;;;5029647;28;20025;-61
2021/09/10 07:40:26;;;;;;;21.75;17.17;;;;;;;;;;5029631;28;20040;-60
2021/09/10 07:42:52;;;;;;;21.30;16.92;;;;;;;;;;5029309;28;20017;-58
2021/09/10 07:45:18;;;;;;;24.23;17.75;;;;;;;;;;5034632;28;20440;-60
2021/09/10 07:47:44;;;;;;;22.02;16.27;;;;;;;;;;5035312;28;20018;-59
2021/09/10 07:50:10;;;;;;;21.92;16.80;;;;;;;;;;5034936;28;20087;-60
2021/09/10 07:52:36;;;;;;;23.13;17.02;;;;;;;;;;5034895;28;20078;-59
2021/09/10 07:55:02;;;;;;;21.65;16.58;;;;;;;;;;5035311;28;20491;-61
2021/09/10 07:57:28;;;;;;;21.50;15.82;;;;;;;;;;5033701;28;20030;-60
2021/09/10 07:59:56;;;;;;;22.77;17.70;;;;;;;;;;5034745;28;20029;-57
2021/09/10 08:02:23;;;;;;;21.73;16.33;;;;;;;;;;5034664;28;20017;-59
2021/09/10 08:04:49;;;;;;;24.98;16.95;;;;;;;;;;5034691;28;20033;-59
2021/09/10 08:07:15;;;;;;;20.55;16.48;;;;;;;;;;5033434;28;20021;-60
2021/09/10 08:09:41;;;;;;;21.52;16.38;;;;;;;;;;5034614;28;20385;-60
2021/09/10 08:12:07;;;;;;;20.00;15.32;;;;;;;;;;5034898;28;20021;-60
2021/09/10 08:14:33;;;;;;;20.92;15.95;;;;;;;;;;5033089;28;20099;-56
2021/09/10 08:16:59;;;;;;;21.58;15.60;;;;;;;;;;5033360;28;20026;-60
2021/09/10 08:19:25;;;;;;;21.35;16.38;;;;;;;;;;5034408;28;20108;-61
2021/09/10 08:21:51;;;;;;;20.92;16.70;;;;;;;;;;5034579;28;20389;-60
2021/09/10 08:24:17;;;;;;;23.42;16.40;;;;;;;;;;5033743;28;20017;-60
2021/09/10 08:26:43;;;;;;;20.42;16.00;;;;;;;;;;5033265;28;20128;-60
2021/09/10 08:29:09;;;;;;;21.75;16.08;;;;;;;;;;5032748;28;20087;-61
2021/09/10 08:31:35;;;;;;;21.20;15.93;;;;;;;;;;5034271;28;20041;-61
2021/09/10 08:34:03;;;;;;;20.13;15.25;;;;;;;;;;5033748;28;20054;-66
2021/09/10 08:36:29;;;;;;;21.33;16.73;;;;;;;;;;5034128;28;20104;-58
2021/09/10 08:38:55;;;;;;;19.58;15.90;;;;;;;;;;5033981;28;20041;-60
2021/09/10 08:41:23;;;;;;;24.08;17.15;;;;;;;;;;5034150;28;20025;-60
2021/09/10 08:43:49;;;;;;;22.10;16.25;;;;;;;;;;5034332;28;20081;-60
2021/09/10 08:46:16;;;;;;;20.02;15.85;;;;;;;;;;5032841;28;20582;-61
2021/09/10 08:48:45;;;;;;;21.92;15.70;;;;;;;;;;5033940;28;20401;-60
2021/09/10 08:51:12;;;;;;;21.00;15.88;;;;;;;;;;5032680;28;20037;-59
2021/09/10 08:53:38;;;;;;;21.35;16.15;;;;;;;;;;5033676;28;20036;-60
2021/09/10 08:56:04;;;;;;;21.15;16.25;;;;;;;;;;5032845;28;20107;-59
2021/09/10 08:58:30;;;;;;;19.98;15.93;;;;;;;;;;5033806;28;20105;-60
2021/09/10 09:01:00;;;;;;;20.13;16.17;;;;;;;;;;5033638;28;20452;-60
2021/09/10 09:03:30;;;;;;;26.35;17.52;;;;;;;;;;5033406;28;20539;-61
2021/09/10 09:05:56;;;;;;;20.92;16.60;;;;;;;;;;5033760;28;20615;-61
2021/09/10 09:08:22;;;;;;;22.15;17.08;;;;;;;;;;5033520;28;20022;-60
2021/09/10 09:10:52;;;;;;;21.40;16.50;;;;;;;;;;5033663;28;20083;-61
2021/09/10 09:13:19;;;;;;;22.15;17.20;;;;;;;;;;5034163;28;20029;-61
2021/09/10 09:15:45;;;;;;;23.88;18.02;;;;;;;;;;5034170;28;20057;-61
2021/09/10 09:18:11;;;;;;;21.60;17.98;;;;;;;;;;5033399;28;20021;-61
2021/09/10 09:20:37;;;;;;;22.25;18.25;;;;;;;;;;5032081;28;20026;-61
2021/09/10 09:23:08;;;;;;;22.23;18.38;;;;;;;;;;5033878;28;20037;-61
2021/09/10 09:25:35;;;;;;;22.75;18.55;;;;;;;;;;5033406;28;20488;-61
2021/09/10 09:28:18;;;;;;;21.63;18.08;;;;;;;;;;5032815;28;20100;-60
2021/09/10 09:30:45;;;;;;;20.15;17.50;;;;;;;;;;5033161;28;20060;-61
2021/09/10 09:33:13;;;;;;;21.45;19.15;;;;;;;;;;5033105;28;20143;-61
2021/09/10 09:35:39;;;;;;;20.85;17.48;;;;;;;;;;5032332;28;20029;-61
2021/09/10 09:38:13;;;;;;;21.20;18.90;;;;;;;;;;5031662;28;20029;-61
2021/09/10 09:40:39;;;;;;;21.05;18.35;;;;;;;;;;5032712;28;20473;-60
2021/09/10 09:43:19;;;;;;;20.63;18.42;;;;;;;;;;5032802;28;20021;-60
2021/09/10 09:45:46;;;;;;;20.67;18.50;;;;;;;;;;5032676;28;20485;-60
2021/09/10 09:48:13;;;;;;;21.45;19.15;;;;;;;;;;5032303;28;20025;-61
2021/09/10 09:50:42;;;;;;;20.48;18.27;;;;;;;;;;5032839;28;20061;-63
2021/09/10 09:53:08;;;;;;;20.58;17.42;;;;;;;;;;5032888;28;20029;-61
2021/09/10 09:55:35;;;;;;;20.48;17.48;;;;;;;;;;5032633;28;20500;-62
2021/09/10 09:58:05;;;;;;;20.38;17.20;;;;;;;;;;5032495;28;20052;-61
2021/09/10 10:00:32;;;;;;;21.05;17.05;;;;;;;;;;5032957;28;20109;-61
2021/09/10 10:02:59;;;;;;;21.02;17.85;;;;;;;;;;5030992;28;20029;-61
2021/09/10 10:05:25;;;;;;;19.75;16.48;;;;;;;;;;5032322;28;20029;-61
2021/09/10 10:08:03;;;;;;;19.35;16.52;;;;;;;;;;5032147;28;20501;-62
2021/09/10 10:10:33;;;;;;;18.92;16.75;;;;;;;;;;5032107;28;20457;-61
2021/09/10 10:13:00;;;;;;;20.88;16.90;;;;;;;;;;5032130;28;20524;-61
2021/09/10 10:15:29;;;;;;;18.92;16.45;;;;;;;;;;5031141;28;20063;-62
2021/09/10 10:17:56;;;;;;;19.83;17.30;;;;;;;;;;5031601;28;20032;-63
2021/09/10 10:20:41;;;;;;;20.25;17.00;;;;;;;;;;5030915;28;20446;-61
2021/09/10 10:23:28;;;;;;;20.35;17.23;;;;;;;;;;5028754;28;20022;-62
2021/09/10 10:26:07;;;;;;;18.65;16.65;;;;;;;;;;5012433;28;20026;-62
2021/09/10 10:28:43;;;;;;;20.45;16.48;;;;;;;;;;5022834;28;20575;-62
2021/09/10 10:31:09;;;;;;;19.10;16.27;;;;;;;;;;5022789;28;20513;-62
2021/09/10 10:33:35;;;;;;;18.83;16.63;;;;;;;;;;5021024;28;20021;-63
2021/09/10 10:36:20;;;;;;;19.63;16.35;;;;;;;;;;5019856;28;20021;-62
2021/09/10 10:39:05;;;;;;;19.20;16.95;;;;;;;;;;5022657;28;20045;-62
2021/09/10 10:41:43;;;;;;;19.65;17.55;;;;;;;;;;5022484;28;20105;-61
2021/09/10 10:44:09;;;;;;;;;;;;;;;;;;5020429;28;20044;-63
2021/09/10 10:46:35;;;;;;;20.95;17.67;;;;;;;;;;5024140;28;19913;-61
2021/09/10 10:49:01;;;;;;;19.65;17.55;;;;;;;;;;5028794;28;20493;-61
2021/09/10 10:51:30;;;;;;;19.52;16.75;;;;;;;;;;5027483;28;20366;-62
2021/09/10 10:53:56;;;;;;;19.17;17.17;;;;;;;;;;5028913;28;20079;-62
2021/09/10 10:56:22;;;;;;;19.48;17.42;;;;;;;;;;5029106;28;20033;-60
2021/09/10 10:59:08;;;;;;;19.35;17.10;;;;;;;;;;5029324;28;20025;-62
2021/09/10 11:01:53;;;;;;;19.23;17.23;;;;;;;;;;5020636;28;20400;-61
2021/09/10 11:04:26;;;;;;;19.48;17.38;;;;;;;;;;5028081;28;20021;-61
2021/09/10 11:06:56;;;;;;;20.23;17.25;;;;;;;;;;5028784;28;20072;-61
2021/09/10 11:09:23;;;;;;;21.08;17.60;;;;;;;;;;5029190;28;20025;-61
2021/09/10 11:11:55;;;;;;;20.23;18.02;;;;;;;;;;5028701;28;20022;-62
2021/09/10 11:14:30;;;;;;;20.05;17.88;;;;;;;;;;5029399;28;20052;-63
2021/09/10 11:17:09;;;;;;;20.48;18.05;;;;;;;;;;5029722;28;20056;-62
2021/09/10 11:19:36;;;;;;;20.25;17.48;;;;;;;;;;5029626;28;20396;-62
2021/09/10 11:22:02;;;;;;;19.65;16.88;;;;;;;;;;5032298;28;20032;-63
2021/09/10 11:24:29;;;;;;;19.85;17.33;;;;;;;;;;5021354;28;20100;-63
2021/09/10 11:26:55;;;;;;;19.13;16.95;;;;;;;;;;5021104;28;20043;-62
2021/09/10 11:29:21;;;;;;;21.40;16.77;;;;;;;;;;5025692;28;20116;-61
2021/09/10 11:31:47;;;;;;;20.35;17.08;;;;;;;;;;5030605;28;20133;-63
2021/09/10 11:34:33;;;;;;;18.67;16.67;;;;;;;;;;5032653;28;20055;-63
2021/09/10 11:37:02;;;;;;;18.73;16.73;;;;;;;;;;5032568;28;20108;-64
2021/09/10 11:39:29;;;;;;;19.73;17.63;;;;;;;;;;5032444;28;20029;-63
2021/09/10 11:41:55;;;;;;;20.45;18.17;;;;;;;;;;5032670;28;20018;-64
2021/09/10 11:44:21;;;;;;;19.17;17.17;;;;;;;;;;5033769;28;20021;-63
2021/09/10 11:46:47;;;;;;;20.75;18.55;;;;;;;;;;5034896;28;20136;-63
2021/09/10 11:49:14;;;;;;;19.83;17.73;;;;;;;;;;5065438;22;20067;-66
2021/09/10 11:51:42;;;;;;;19.88;17.70;;;;;;;;;;5055369;28;20028;-65
2021/09/10 11:54:08;;;;;;;;;;;;;;;;;;5074188;28;20016;-64
2021/09/10 11:56:34;;;;;;;20.90;18.65;;;;;;;;;;5056095;28;19915;-66
2021/09/10 11:59:00;;;;;;;22.13;18.92;;;;;;;;;;5073808;28;20081;-65
2021/09/10 12:01:31;;;;;;;22.45;20.15;;;;;;;;;;5055971;28;20408;-65
2021/09/10 12:04:02;;;;;;;23.08;20.77;;;;;;;;;;5053841;28;20040;-63
2021/09/10 12:06:29;;;;;;;23.20;21.00;;;;;;;;;;5073962;28;20063;-63
2021/09/10 12:09:14;;;;;;;22.67;20.48;;;;;;;;;;5073554;28;20024;-64
2021/09/10 12:11:55;;;;;;;24.30;21.70;;;;;;;;;;5073567;28;20054;-63
2021/09/10 12:14:33;;;;;;;23.30;21.00;;;;;;;;;;5043385;28;20403;-64
2021/09/10 12:17:10;;;;;;;22.27;19.98;;;;;;;;;;5035892;28;20021;-65
2021/09/10 12:19:55;;;;;;;24.00;21.52;;;;;;;;;;5055138;28;20048;-64
2021/09/10 12:22:39;;;;;;;23.15;20.67;;;;;;;;;;5055093;28;20507;-66
2021/09/10 12:25:24;;;;;;;22.92;20.63;;;;;;;;;;5037566;28;20393;-65
2021/09/10 12:28:14;;;;;;;21.10;19.00;;;;;;;;;;5035169;28;20025;-63
2021/09/10 12:31:06;;;;;;;22.17;19.88;;;;;;;;;;5047421;28;20234;-64
2021/09/10 12:33:33;;;;;;;23.45;21.05;;;;;;;;;;5055027;28;20033;-63
2021/09/10 12:36:00;;;;;;;23.08;20.77;;;;;;;;;;4719815;28;10000454;-64
2021/09/10 12:38:46;;;;;;;22.40;20.13;;;;;;;;;;5050179;28;20044;-65
2021/09/10 12:41:12;;;;;;;21.70;19.50;;;;;;;;;;5050248;28;20392;-64
2021/09/10 12:43:39;;;;;;;22.63;20.33;;;;;;;;;;5051993;28;20021;-65
2021/09/10 12:46:09;;;;;;;22.20;20.00;;;;;;;;;;5055139;28;20123;-65
2021/09/10 12:48:35;;;;;;;22.98;20.65;;;;;;;;;;5050268;28;20591;-64
2021/09/10 12:51:01;;;;;;;23.08;20.70;;;;;;;;;;5050342;28;20029;-65
2021/09/10 12:53:27;;;;;;;23.05;20.75;;;;;;;;;;5059855;28;20071;-66
2021/09/10 12:55:53;;;;;;;22.80;20.55;;;;;;;;;;5049980;28;20028;-65
2021/09/10 12:58:19;;;;;;;23.30;20.92;;;;;;;;;;5058000;28;20844;-65
2021/09/10 13:00:45;;;;;;;22.85;20.65;;;;;;;;;;5057611;28;20080;-66
2021/09/10 13:03:11;;;;;;;23.25;20.95;;;;;;;;;;5057829;28;20382;-64
2021/09/10 13:05:38;;;;;;;24.38;21.52;;;;;;;;;;5059771;28;20028;-65
2021/09/10 13:08:04;;;;;;;25.15;21.55;;;;;;;;;;5055653;28;20029;-65
2021/09/10 13:10:30;;;;;;;23.98;21.35;;;;;;;;;;5049739;28;20043;-65
2021/09/10 13:12:56;;;;;;;23.27;20.90;;;;;;;;;;5032212;28;20396;-66
2021/09/10 13:15:24;;;;;;;23.02;20.73;;;;;;;;;;5067944;28;20032;-63
2021/09/10 13:17:50;;;;;;;23.42;20.75;;;;;;;;;;5069838;28;20025;-64
2021/09/10 13:20:16;;;;;;;23.38;20.65;;;;;;;;;;5069729;28;20087;-66
2021/09/10 13:22:42;;;;;;;23.88;21.33;;;;;;;;;;5069274;28;20013;-65
2021/09/10 13:25:08;;;;;;;22.45;20.25;;;;;;;;;;5052371;28;20108;-65
2021/09/10 13:27:34;;;;;;;21.85;19.63;;;;;;;;;;5031783;28;20265;-65
2021/09/10 13:30:00;;;;;;;22.63;20.23;;;;;;;;;;5052136;28;20453;-66
2021/09/10 13:32:27;;;;;;;21.45;19.25;;;;;;;;;;5052361;28;20025;-65
2021/09/10 13:34:53;;;;;;;22.40;19.23;;;;;;;;;;5033758;28;20513;-65
2021/09/10 13:37:19;;;;;;;21.77;19.55;;;;;;;;;;5034312;28;20119;-66
2021/09/10 13:39:45;;;;;;;23.42;20.23;;;;;;;;;;5051940;28;20032;-65
2021/09/10 13:42:11;;;;;;;21.80;19.60;;;;;;;;;;5050543;28;20037;-65
2021/09/10 13:44:37;;;;;;;22.60;20.17;;;;;;;;;;4716020;28;9999947;-65
2021/09/10 13:47:03;;;;;;;22.45;20.08;;;;;;;;;;5068998;28;20166;-65
2021/09/10 13:49:29;;;;;;;22.23;19.85;;;;;;;;;;5068372;28;20101;-62
2021/09/10 13:51:56;;;;;;;22.67;20.27;;;;;;;;;;5068984;28;20024;-64
2021/09/10 13:54:23;;;;;;;21.48;19.30;;;;;;;;;;5032943;28;20025;-65
2021/09/10 13:56:49;;;;;;;22.80;20.40;;;;;;;;;;5048719;28;20105;-65
2021/09/10 13:59:15;;;;;;;21.77;19.48;;;;;;;;;;5032511;28;20082;-65
2021/09/10 14:01:41;;;;;;;22.30;19.90;;;;;;;;;;5051737;28;20056;-67
2021/09/10 14:04:07;;;;;;;20.92;17.60;;;;;;;;;;5033651;28;20029;-65
2021/09/10 14:06:33;;;;;;;22.38;18.63;;;;;;;;;;5051775;28;20028;-65
2021/09/10 14:09:00;;;;;;;19.85;17.70;;;;;;;;;;5051803;28;20029;-64
2021/09/10 14:11:26;;;;;;;19.23;17.08;;;;;;;;;;5052142;28;20547;-66
2021/09/10 14:13:52;;;;;;;20.25;17.02;;;;;;;;;;5051513;28;20052;-65
2021/09/10 14:16:18;;;;;;;21.55;18.30;;;;;;;;;;5033695;28;20473;-66
2021/09/10 14:18:44;;;;;;;19.60;17.40;;;;;;;;;;5062585;28;20021;-65
2021/09/10 14:21:10;;;;;;;20.15;17.13;;;;;;;;;;5070131;28;20021;-65